Time;durP1;ratioP1;P1;durP2;ratioP2;P2;SDS_P1;SDS_P2;PMS_P1;PMS_P2;Temp;Humidity;BMP_temperature;BMP_pressure;BME280_temperature;BME280_humidity;BME280_pressure;Samples;Min_cycle;Max_cycle;Signal;HPM_P1;HPM_P2
2020/12/31 00:01:27;;;;;;;4.85;3.33;;;;;;;7.71;61.19;100258.00;4930675;28;113277;-75
2020/12/31 00:03:55;;;;;;;6.15;3.25;;;;;;;7.71;61.27;100254.50;4927517;28;124628;-75
2020/12/31 00:06:21;;;;;;;5.22;3.30;;;;;;;7.68;60.93;100249.34;4934605;28;124190;-75
2020/12/31 00:08:48;;;;;;;5.38;2.80;;;;;;;7.67;61.47;100253.78;4929766;28;114701;-75
2020/12/31 00:11:14;;;;;;;4.07;3.05;;;;;;;7.67;61.63;100255.56;4911952;28;114063;-75
2020/12/31 00:13:41;;;;;;;4.30;2.92;;;;;;;7.66;61.14;100256.47;4927870;28;123058;-75
2020/12/31 00:16:09;;;;;;;6.72;3.20;;;;;;;7.63;61.63;100260.09;4946520;28;123505;-75
2020/12/31 00:18:35;;;;;;;5.00;2.97;;;;;;;7.63;61.32;100259.22;4930824;28;115196;-75
2020/12/31 00:21:03;;;;;;;4.70;2.97;;;;;;;7.60;61.39;100253.16;4944888;28;114795;-75
2020/12/31 00:23:29;;;;;;;4.80;2.80;;;;;;;7.59;61.43;100251.47;4945954;28;124010;-75
2020/12/31 00:25:56;;;;;;;7.53;3.13;;;;;;;7.58;61.16;100260.28;4922529;28;123338;-76
2020/12/31 00:28:23;;;;;;;4.93;2.85;;;;;;;7.57;61.35;100268.25;4913849;28;114300;-75
2020/12/31 00:30:49;;;;;;;5.32;3.17;;;;;;;7.58;61.52;100252.38;4909636;28;114135;-75
2020/12/31 00:33:20;;;;;;;5.53;3.05;;;;;;;7.56;61.77;100262.13;4930042;28;123960;-75
2020/12/31 00:35:54;;;;;;;6.25;2.92;;;;;;;7.55;61.54;100252.53;4910281;28;123788;-75
2020/12/31 00:38:23;;;;;;;4.03;2.75;;;;;;;7.56;61.66;100246.31;4928315;28;113659;-75
2020/12/31 00:40:52;;;;;;;4.20;2.92;;;;;;;7.53;61.21;100241.16;4911808;28;113634;-75
2020/12/31 00:43:19;;;;;;;4.45;3.00;;;;;;;7.53;61.56;100243.81;4944958;28;123922;-75
2020/12/31 00:45:46;;;;;;;5.05;3.33;;;;;;;7.53;61.53;100241.16;4927499;28;122521;-75
2020/12/31 00:48:12;;;;;;;4.43;3.00;;;;;;;7.50;61.46;100241.31;4923689;28;113296;-75
2020/12/31 00:50:39;;;;;;;5.13;3.42;;;;;;;7.49;61.53;100239.59;4912870;28;112982;-75
2020/12/31 00:53:06;;;;;;;4.60;3.60;;;;;;;7.48;61.58;100242.28;4927619;28;123792;-75
2020/12/31 00:55:34;;;;;;;5.65;4.10;;;;;;;7.45;61.56;100243.28;4897199;28;125863;-75
2020/12/31 00:58:01;;;;;;;5.88;3.95;;;;;;;7.44;61.93;100238.94;4912460;28;113166;-75
2020/12/31 01:00:30;;;;;;;6.85;4.15;;;;;;;7.43;61.87;100236.38;4916183;28;114196;-75
2020/12/31 01:03:05;;;;;;;6.25;4.85;;;;;;;7.42;61.75;100235.50;4940905;28;124149;-75
2020/12/31 01:05:32;;;;;;;6.80;4.68;;;;;;;7.42;61.60;100232.84;4945401;28;124374;-76
2020/12/31 01:07:59;;;;;;;6.82;4.75;;;;;;;7.42;61.57;100238.13;4949866;28;114275;-75
2020/12/31 01:10:26;;;;;;;7.05;5.28;;;;;;;7.42;61.68;100235.50;4938505;28;114174;-75
2020/12/31 01:12:52;;;;;;;8.63;4.93;;;;;;;7.40;61.48;100229.44;4922566;28;123288;-75
2020/12/31 01:15:19;;;;;;;7.55;4.80;;;;;;;7.41;61.53;100236.44;4930119;28;124949;-75
2020/12/31 01:17:46;;;;;;;6.57;4.43;;;;;;;7.40;61.79;100234.69;4932794;28;113068;-75
2020/12/31 01:20:12;;;;;;;5.95;4.30;;;;;;;7.40;61.70;100234.69;4948652;28;114430;-75
2020/12/31 01:22:39;;;;;;;5.53;4.28;;;;;;;7.39;62.15;100233.00;4933088;28;122666;-75
2020/12/31 01:25:06;;;;;;;6.30;4.45;;;;;;;7.40;62.00;100239.97;4934505;28;122545;-75
2020/12/31 01:27:32;;;;;;;5.38;4.28;;;;;;;7.38;61.48;100233.91;4950518;28;115291;-75
2020/12/31 01:29:59;;;;;;;7.40;4.45;;;;;;;7.36;61.95;100233.97;4929630;28;112764;-75
2020/12/31 01:32:26;;;;;;;5.20;4.07;;;;;;;7.37;61.69;100234.84;4935298;28;123327;-75
2020/12/31 01:34:52;;;;;;;5.47;4.25;;;;;;;7.37;61.94;100229.56;4935766;28;124487;-75
2020/12/31 01:37:20;;;;;;;5.72;4.30;;;;;;;7.37;61.83;100229.56;4945291;28;114336;-75
2020/12/31 01:39:47;;;;;;;5.78;4.68;;;;;;;7.36;61.73;100233.97;4930682;28;113571;-75
2020/12/31 01:42:14;;;;;;;5.88;3.83;;;;;;;7.36;61.93;100233.13;4900488;28;122726;-75
2020/12/31 01:44:41;;;;;;;5.32;3.72;;;;;;;7.36;61.63;100233.13;4944634;28;124733;-75
2020/12/31 01:47:13;;;;;;;5.10;3.17;;;;;;;7.34;61.63;100240.22;4896022;28;113323;-75
2020/12/31 01:49:42;;;;;;;4.95;3.22;;;;;;;7.33;61.76;100249.06;4930848;28;114703;-75
2020/12/31 01:52:12;;;;;;;4.18;3.20;;;;;;;7.31;61.66;100245.63;4931404;28;122882;-75
2020/12/31 01:54:39;;;;;;;3.78;2.90;;;;;;;7.32;61.82;100242.06;4945181;28;124841;-75
2020/12/31 01:57:08;;;;;;;4.38;3.20;;;;;;;7.29;61.51;100242.19;4917354;28;113196;-75
2020/12/31 01:59:34;;;;;;;4.80;3.15;;;;;;;7.27;61.60;100238.75;4939520;28;114573;-76
2020/12/31 02:02:01;;;;;;;3.65;2.90;;;;;;;7.27;62.06;100242.28;4910350;28;121960;-75
2020/12/31 02:04:27;;;;;;;3.75;2.92;;;;;;;7.27;61.53;100233.50;4945756;28;123646;-75
2020/12/31 02:06:54;;;;;;;4.05;3.17;;;;;;;7.27;61.71;100238.75;4911380;28;113270;-75
2020/12/31 02:09:21;;;;;;;3.47;2.88;;;;;;;7.27;61.52;100238.75;4937223;28;113530;-74
2020/12/31 02:11:47;;;;;;;4.05;2.80;;;;;;;7.28;61.86;100229.97;4913123;28;123480;-75
2020/12/31 02:14:14;;;;;;;4.18;3.10;;;;;;;7.29;61.73;100229.91;4936138;28;123772;-75
2020/12/31 02:16:43;;;;;;;4.38;3.08;;;;;;;7.27;61.84;100233.50;4933801;28;113759;-75
2020/12/31 02:19:15;;;;;;;4.47;2.75;;;;;;;7.26;61.88;100226.53;4937994;28;112770;-75
2020/12/31 02:21:46;;;;;;;3.40;2.38;;;;;;;7.24;61.90;100225.75;4933645;28;123538;-75
2020/12/31 02:24:13;;;;;;;4.80;3.20;;;;;;;7.24;61.83;100228.38;4919498;28;123913;-75
2020/12/31 02:26:41;;;;;;;3.50;2.70;;;;;;;7.21;61.64;100224.94;4925657;28;114412;-75
2020/12/31 02:29:10;;;;;;;4.32;3.17;;;;;;;7.19;61.72;100221.50;4927646;28;112907;-75
2020/12/31 02:31:37;;;;;;;4.65;3.10;;;;;;;7.16;61.53;100224.28;4923901;28;123172;-75
2020/12/31 02:34:06;;;;;;;3.95;2.92;;;;;;;7.16;61.59;100221.63;4910417;28;124136;-76
2020/12/31 02:36:35;;;;;;;5.13;2.80;;;;;;;7.14;61.75;100223.47;4944646;28;115481;-75
2020/12/31 02:39:10;;;;;;;3.63;2.78;;;;;;;7.14;61.43;100222.59;4942004;28;114976;-75
2020/12/31 02:41:37;;;;;;;3.55;2.90;;;;;;;7.12;61.59;100225.31;4933612;28;123337;-75
2020/12/31 02:44:05;;;;;;;3.65;2.60;;;;;;;7.13;61.52;100224.38;4925441;28;123058;-76
2020/12/31 02:46:32;;;;;;;4.30;2.80;;;;;;;7.13;61.80;100227.03;4939140;28;114233;-75
2020/12/31 02:48:59;;;;;;;4.30;2.90;;;;;;;7.15;61.72;100221.69;4923530;28;114471;-75
2020/12/31 02:51:26;;;;;;;4.28;3.25;;;;;;;7.13;61.60;100216.50;4910480;28;123149;-75
2020/12/31 02:53:53;;;;;;;5.10;3.17;;;;;;;7.13;61.66;100219.13;4944150;28;124428;-75
2020/12/31 02:56:21;;;;;;;4.20;3.40;;;;;;;7.12;61.54;100213.91;4943190;28;112258;-75
2020/12/31 02:58:49;;;;;;;6.28;3.65;;;;;;;7.11;61.86;100213.06;4951849;23;112049;-65
2020/12/31 03:01:16;;;;;;;5.10;3.25;;;;;;;7.10;61.79;100215.75;4929934;28;121885;-66
2020/12/31 03:03:43;;;;;;;4.50;3.17;;;;;;;7.09;61.66;100220.16;4922338;28;123922;-66
2020/12/31 03:06:10;;;;;;;6.03;3.50;;;;;;;7.08;61.81;100218.44;4934149;28;114626;-66
2020/12/31 03:08:38;;;;;;;5.38;3.70;;;;;;;7.09;61.57;100209.63;4932618;28;114236;-66
2020/12/31 03:11:09;;;;;;;5.22;3.70;;;;;;;7.09;62.02;100214.91;4933425;28;124399;-68
2020/12/31 03:13:35;;;;;;;5.65;3.70;;;;;;;7.10;61.74;100211.38;4932762;28;124254;-66
2020/12/31 03:16:02;;;;;;;4.38;3.17;;;;;;;7.10;61.91;100208.72;4916255;28;113276;-66
2020/12/31 03:18:28;;;;;;;5.32;3.58;;;;;;;7.09;61.88;100209.63;4915990;28;112845;-66
2020/12/31 03:20:55;;;;;;;4.55;3.67;;;;;;;7.08;61.99;100207.06;4932201;28;124110;-66
2020/12/31 03:23:21;;;;;;;6.82;3.70;;;;;;;7.07;62.09;100206.22;4915545;28;124051;-66
2020/12/31 03:25:48;;;;;;;4.22;3.08;;;;;;;7.07;61.71;100206.22;4915230;28;114360;-66
2020/12/31 03:28:14;;;;;;;4.80;3.33;;;;;;;7.08;61.85;100205.28;4932123;28;114158;-66
2020/12/31 03:30:43;;;;;;;6.25;3.50;;;;;;;7.07;61.62;100206.22;4915926;28;122930;-66
2020/12/31 03:33:12;;;;;;;4.88;3.50;;;;;;;7.05;61.87;100205.41;4932242;28;123590;-66
2020/12/31 03:35:40;;;;;;;4.97;3.30;;;;;;;7.06;61.70;100204.47;4916529;28;114006;-64
2020/12/31 03:38:07;;;;;;;5.40;3.17;;;;;;;7.07;61.93;100200.94;4915138;28;113770;-66
2020/12/31 03:40:34;;;;;;;5.68;3.28;;;;;;;7.06;61.71;100199.22;4929254;28;123809;-66
2020/12/31 03:43:01;;;;;;;7.75;3.40;;;;;;;7.05;61.96;100192.25;4930971;28;122945;-65
2020/12/31 03:45:28;;;;;;;4.13;2.97;;;;;;;7.06;62.04;100193.94;4914453;28;114223;-66
2020/12/31 03:47:54;;;;;;;5.20;3.42;;;;;;;7.07;62.05;100195.69;4913073;28;113923;-65
2020/12/31 03:50:21;;;;;;;4.03;3.00;;;;;;;7.09;61.97;100171.94;4913668;28;123321;-66
2020/12/31 03:52:48;;;;;;;3.92;3.00;;;;;;;7.09;62.13;100178.03;4933430;28;124035;-65
2020/12/31 03:55:16;;;;;;;5.80;3.47;;;;;;;7.11;62.05;100181.47;4932437;28;115880;-65
2020/12/31 03:57:43;;;;;;;4.93;3.03;;;;;;;7.10;62.07;100179.78;4916144;28;113886;-65
2020/12/31 04:00:10;;;;;;;6.05;3.08;;;;;;;7.12;61.96;100177.94;4914858;28;123477;-66
2020/12/31 04:02:37;;;;;;;6.05;3.22;;;;;;;7.13;62.10;100184.88;4930005;28;124558;-65
2020/12/31 04:05:04;;;;;;;4.68;2.85;;;;;;;7.16;62.06;100171.59;4915800;28;114301;-66
2020/12/31 04:07:31;;;;;;;5.53;3.03;;;;;;;7.17;61.90;100170.66;4916256;28;113799;-65
2020/12/31 04:09:58;;;;;;;5.00;2.92;;;;;;;7.16;62.13;100163.69;4932480;28;123730;-66
2020/12/31 04:12:24;;;;;;;4.57;2.80;;;;;;;7.16;62.15;100162.84;4912664;28;124705;-65
2020/12/31 04:14:51;;;;;;;4.50;2.85;;;;;;;7.15;62.27;100167.25;4914221;28;114148;-65
2020/12/31 04:17:17;;;;;;;4.97;2.78;;;;;;;7.14;62.05;100160.28;4932455;28;114984;-65
2020/12/31 04:19:44;;;;;;;3.47;2.75;;;;;;;7.15;61.92;100161.97;4914639;28;123322;-66
2020/12/31 04:22:11;;;;;;;4.05;2.60;;;;;;;7.14;61.86;100155.00;4932113;28;124189;-65
2020/12/31 04:24:37;;;;;;;5.32;2.88;;;;;;;7.14;61.91;100157.66;4929757;28;114154;-65
2020/12/31 04:27:04;;;;;;;5.03;3.05;;;;;;;7.14;61.93;100149.75;4915338;28;113069;-66
2020/12/31 04:29:31;;;;;;;5.00;2.80;;;;;;;7.17;62.31;100148.75;4931697;28;124036;-66
2020/12/31 04:31:57;;;;;;;5.30;2.53;;;;;;;7.18;62.09;100150.47;4932554;28;123857;-66
2020/12/31 04:34:24;;;;;;;4.82;3.00;;;;;;;7.17;62.10;100149.59;4932080;28;114358;-66
2020/12/31 04:36:51;;;;;;;4.05;3.00;;;;;;;7.17;61.58;100144.34;4931219;28;114121;-66
2020/12/31 04:39:17;;;;;;;5.13;2.88;;;;;;;7.16;61.80;100141.78;4914051;28;123179;-66
2020/12/31 04:41:44;;;;;;;9.30;3.05;;;;;;;7.13;62.13;100145.38;4914911;28;123907;-66
2020/12/31 04:44:15;;;;;;;4.82;2.80;;;;;;;7.12;62.12;100140.19;4914025;28;112906;-65
2020/12/31 04:46:52;;;;;;;4.38;2.83;;;;;;;7.10;61.88;100132.38;4928043;28;113943;-66
2020/12/31 04:49:28;;;;;;;5.32;2.63;;;;;;;7.10;62.25;100137.63;4913260;28;124021;-66
2020/12/31 04:51:56;;;;;;;4.88;3.05;;;;;;;7.10;61.96;100135.00;4930657;28;123889;-65
2020/12/31 04:54:23;;;;;;;4.00;2.83;;;;;;;7.07;62.15;100132.50;4932289;28;114207;-66
2020/12/31 04:56:50;;;;;;;5.53;3.08;;;;;;;7.06;61.95;100130.75;4915264;28;114879;-66
2020/12/31 04:59:16;;;;;;;4.75;3.00;;;;;;;7.04;62.07;100135.25;4931343;28;123170;-66
2020/12/31 05:01:46;;;;;;;4.40;3.20;;;;;;;7.04;62.19;100137.88;4932165;28;123762;-65
2020/12/31 05:04:13;;;;;;;4.63;2.47;;;;;;;7.02;62.21;100139.72;4896841;28;113501;-65
2020/12/31 05:06:40;;;;;;;5.18;2.47;;;;;;;7.02;62.24;100139.72;4931695;28;115620;-65
2020/12/31 05:09:18;;;;;;;5.43;2.50;;;;;;;7.00;62.06;100131.03;4931401;28;124744;-66
2020/12/31 05:11:51;;;;;;;4.32;2.13;;;;;;;6.99;61.92;100134.59;4932205;28;123781;-65
2020/12/31 05:14:35;;;;;;;3.03;2.03;;;;;;;6.97;62.11;100132.03;4930008;28;114413;-65
2020/12/31 05:17:17;;;;;;;3.42;2.08;;;;;;;6.97;61.93;100131.19;4932114;28;113774;-66
2020/12/31 05:19:45;;;;;;;4.97;2.10;;;;;;;6.95;61.90;100133.00;4912741;28;123330;-65
2020/12/31 05:22:19;;;;;;;3.78;2.03;;;;;;;6.95;62.19;100133.00;4913810;28;122904;-66
2020/12/31 05:24:47;;;;;;;5.47;2.00;;;;;;;6.94;61.83;100132.13;4928233;28;113451;-66
2020/12/31 05:27:27;;;;;;;3.50;1.90;;;;;;;6.93;62.13;100129.56;4931407;28;113753;-65
2020/12/31 05:30:10;;;;;;;5.95;2.10;;;;;;;6.92;62.10;100133.13;4930597;28;124759;-66
2020/12/31 05:32:38;;;;;;;6.03;1.90;;;;;;;6.92;62.18;100133.13;4913376;28;123511;-66
2020/12/31 05:35:10;;;;;;;4.03;2.00;;;;;;;6.90;61.88;100137.59;4930660;28;114601;-66
2020/12/31 05:37:37;;;;;;;5.18;1.98;;;;;;;6.89;61.79;100133.25;4930190;28;113356;-66
2020/12/31 05:40:09;;;;;;;2.95;1.90;;;;;;;6.88;62.14;100126.28;4913762;28;122806;-66
2020/12/31 05:42:38;;;;;;;3.60;2.00;;;;;;;6.87;62.01;100130.69;4930489;28;123393;-65
2020/12/31 05:45:12;;;;;;;5.50;1.92;;;;;;;6.88;61.88;100131.56;4913481;28;114294;-66
2020/12/31 05:47:46;;;;;;;5.55;1.95;;;;;;;6.87;61.91;100135.09;4930160;28;113801;-65
2020/12/31 05:50:27;;;;;;;3.13;2.00;;;;;;;6.86;62.13;100138.66;4930051;28;123262;-66
2020/12/31 05:52:54;;;;;;;5.57;2.17;;;;;;;6.82;62.00;100138.78;4930434;28;124440;-65
2020/12/31 05:55:23;;;;;;;4.15;2.10;;;;;;;6.82;61.96;100128.25;4913384;28;115420;-66
2020/12/31 05:57:55;;;;;;;3.67;2.00;;;;;;;6.82;62.10;100136.13;4914583;28;115406;-65
2020/12/31 06:00:27;;;;;;;2.67;1.90;;;;;;;6.82;62.07;100138.78;4930730;28;125593;-65
2020/12/31 06:03:00;;;;;;;4.88;2.03;;;;;;;6.81;62.12;100131.78;4929900;28;123878;-65
2020/12/31 06:05:28;;;;;;;3.38;1.73;;;;;;;6.81;62.14;100131.78;4930704;28;114304;-65
2020/12/31 06:07:57;;;;;;;2.67;1.85;;;;;;;6.79;62.15;100128.34;4931495;28;113867;-66
2020/12/31 06:10:31;;;;;;;2.90;2.03;;;;;;;6.77;61.95;100135.47;4930763;28;123960;-65
2020/12/31 06:12:59;;;;;;;3.50;1.67;;;;;;;6.77;61.88;100135.47;4930898;28;123089;-65
2020/12/31 06:15:40;;;;;;;3.55;1.75;;;;;;;6.75;61.83;100142.56;4931652;28;114894;-65
2020/12/31 06:18:07;;;;;;;2.00;1.40;;;;;;;6.75;62.12;100150.47;4929295;28;113970;-65
2020/12/31 06:20:38;;;;;;;3.47;1.58;;;;;;;6.77;62.16;100146.00;4930757;28;124669;-65
2020/12/31 06:23:09;;;;;;;2.95;1.75;;;;;;;6.77;62.17;100148.63;4928435;28;124313;-66
2020/12/31 06:25:43;;;;;;;4.20;1.60;;;;;;;6.77;61.91;100146.00;4930770;28;113600;-65
2020/12/31 06:28:12;;;;;;;3.30;1.40;;;;;;;6.77;61.82;100143.38;4908117;28;114258;-66
2020/12/31 06:30:41;;;;;;;3.90;1.50;;;;;;;6.77;62.06;100146.00;4930312;28;124064;-65
2020/12/31 06:33:12;;;;;;;2.92;1.40;;;;;;;6.76;62.17;100146.94;4930675;28;123737;-65
2020/12/31 06:35:42;;;;;;;4.57;1.80;;;;;;;6.77;62.13;100145.16;4929217;28;114619;-65
2020/12/31 06:38:09;;;;;;;2.13;1.20;;;;;;;6.76;62.10;100149.56;4914136;28;112987;-65
2020/12/31 06:40:36;;;;;;;2.78;1.40;;;;;;;6.75;61.80;100147.84;4930554;28;123973;-65
2020/12/31 06:43:12;;;;;;;3.47;1.30;;;;;;;6.75;62.26;100142.56;4910981;28;124521;-66
2020/12/31 06:45:40;;;;;;;3.17;1.15;;;;;;;6.74;62.13;100140.88;4927284;28;114775;-66
2020/12/31 06:48:25;;;;;;;2.53;1.10;;;;;;;6.72;62.09;100145.31;4930207;28;115226;-65
2020/12/31 06:50:59;;;;;;;3.10;1.20;;;;;;;6.72;62.01;100153.22;4912621;28;123602;-65
2020/12/31 06:53:26;;;;;;;2.03;1.17;;;;;;;6.71;61.80;100146.25;4929357;28;123599;-65
2020/12/31 06:55:53;;;;;;;4.95;1.58;;;;;;;6.70;62.04;100151.56;4931080;28;113797;-66
2020/12/31 06:58:24;;;;;;;3.55;1.92;;;;;;;6.67;61.91;100155.19;4925567;28;112918;-65
2020/12/31 07:00:52;;;;;;;4.25;2.55;;;;;;;6.66;61.76;100153.47;4929796;28;123253;-66
2020/12/31 07:03:40;;;;;;;4.50;2.60;;;;;;;6.63;61.92;100161.50;4914533;28;121971;-65
2020/12/31 07:06:22;;;;;;;11.52;7.10;;;;;;;6.61;61.96;100165.94;4934173;28;114525;-65
2020/12/31 07:08:59;;;;;;;16.30;10.32;;;;;;;6.62;62.04;100162.41;4933883;28;113852;-65
2020/12/31 07:11:33;;;;;;;12.95;8.00;;;;;;;6.61;62.15;100155.41;4931754;28;124036;-66
2020/12/31 07:14:00;;;;;;;5.55;3.90;;;;;;;6.60;62.01;100148.44;4912289;28;124676;-66
2020/12/31 07:16:38;;;;;;;2.63;1.60;;;;;;;6.59;62.03;100154.63;4934104;28;114026;-66
2020/12/31 07:19:06;;;;;;;4.40;1.55;;;;;;;6.59;62.18;100152.00;4934185;28;114167;-66
2020/12/31 07:21:36;;;;;;;8.18;1.98;;;;;;;6.59;62.23;100158.13;4934047;28;124661;-66
2020/12/31 07:24:24;;;;;;;10.15;2.35;;;;;;;6.58;61.81;100158.19;4934292;28;122930;-65
2020/12/31 07:26:57;;;;;;;3.05;2.22;;;;;;;6.58;62.06;100155.56;4933929;28;115055;-65
2020/12/31 07:29:30;;;;;;;4.22;2.25;;;;;;;6.58;62.05;100166.06;4932535;28;114477;-66
2020/12/31 07:31:58;;;;;;;5.50;2.17;;;;;;;6.58;62.00;100166.06;4931707;28;124617;-65
2020/12/31 07:34:30;;;;;;;5.50;2.30;;;;;;;6.58;62.30;100166.94;4932694;28;123656;-66
2020/12/31 07:37:04;;;;;;;3.88;2.17;;;;;;;6.60;61.81;100170.34;4912954;28;114231;-65
2020/12/31 07:39:32;;;;;;;4.05;2.45;;;;;;;6.60;62.00;100178.25;4913395;28;114537;-65
2020/12/31 07:42:08;;;;;;;4.63;2.70;;;;;;;6.59;62.17;100162.50;4932347;28;124395;-65
2020/12/31 07:44:35;;;;;;;3.70;2.88;;;;;;;6.59;61.83;100173.03;4913611;28;123983;-65
2020/12/31 07:47:02;;;;;;;5.50;3.25;;;;;;;6.57;62.25;100172.25;4914803;28;114386;-66
2020/12/31 07:49:42;;;;;;;5.95;3.58;;;;;;;6.55;62.14;100176.72;4932023;28;113998;-66
2020/12/31 07:52:09;;;;;;;8.48;4.47;;;;;;;6.54;61.92;100175.84;4914340;28;122226;-65
2020/12/31 07:54:35;;;;;;;11.32;5.15;;;;;;;6.51;62.09;100180.38;4931850;28;124761;-66
2020/12/31 07:57:04;;;;;;;9.63;5.50;;;;;;;6.50;61.88;100178.66;4914893;28;113554;-65
2020/12/31 07:59:31;;;;;;;8.90;5.00;;;;;;;6.50;62.30;100189.19;4913853;28;113000;-65
2020/12/31 08:02:05;;;;;;;9.95;5.70;;;;;;;6.50;62.05;100178.66;4931177;28;124278;-65
2020/12/31 08:04:32;;;;;;;10.55;6.75;;;;;;;6.50;62.13;100189.19;4930989;28;124037;-65
2020/12/31 08:07:02;;;;;;;12.35;7.25;;;;;;;6.48;62.14;100175.22;4932211;28;113991;-65
2020/12/31 08:09:28;;;;;;;12.18;7.28;;;;;;;6.48;62.20;100180.50;4914906;28;112834;-66
2020/12/31 08:11:55;;;;;;;11.75;7.47;;;;;;;6.48;62.11;100180.50;4930677;28;124290;-65
2020/12/31 08:14:22;;;;;;;12.52;7.47;;;;;;;6.49;62.38;100176.97;4926053;28;123691;-67
2020/12/31 08:17:01;;;;;;;12.70;7.90;;;;;;;6.50;62.30;100178.66;4932831;28;114595;-66
2020/12/31 08:19:29;;;;;;;13.73;7.82;;;;;;;6.52;62.20;100176.84;4915531;28;113138;-67
2020/12/31 08:22:03;;;;;;;12.80;7.70;;;;;;;6.50;62.36;100179.53;4928727;28;124280;-67
2020/12/31 08:24:32;;;;;;;15.63;8.25;;;;;;;6.49;62.14;100177.81;4913937;28;122309;-67
2020/12/31 08:26:59;;;;;;;17.65;9.18;;;;;;;6.52;61.95;100176.84;4931277;28;115558;-66
2020/12/31 08:29:27;;;;;;;19.00;10.30;;;;;;;6.52;62.20;100182.13;4930708;28;114984;-67
2020/12/31 08:31:54;;;;;;;16.13;9.70;;;;;;;6.51;62.08;100175.13;4912591;28;123357;-66
2020/12/31 08:34:28;;;;;;;16.45;10.48;;;;;;;6.50;62.08;100178.66;4928454;28;124087;-67
2020/12/31 08:36:55;;;;;;;19.95;10.18;;;;;;;6.50;62.26;100178.66;4930589;28;113380;-67
2020/12/31 08:39:21;;;;;;;19.25;10.20;;;;;;;6.51;62.46;100175.13;4931164;28;114546;-67
2020/12/31 08:41:59;;;;;;;15.40;8.63;;;;;;;6.51;62.46;100177.75;4913819;28;123997;-67
2020/12/31 08:44:27;;;;;;;16.60;9.85;;;;;;;6.53;62.22;100178.53;4930135;28;123390;-67
2020/12/31 08:46:54;;;;;;;16.50;8.90;;;;;;;6.54;62.16;100178.50;4914222;28;111971;-66
2020/12/31 08:49:23;;;;;;;16.17;8.98;;;;;;;6.54;62.13;100180.28;4912621;28;111959;-67
2020/12/31 08:51:51;;;;;;;14.20;8.80;;;;;;;6.56;62.43;100175.81;4913149;28;122899;-67
2020/12/31 08:54:17;;;;;;;14.10;8.88;;;;;;;6.59;62.38;100183.56;4913316;28;122879;-67
2020/12/31 08:56:44;;;;;;;16.88;9.43;;;;;;;6.62;62.40;100183.44;4931955;28;115005;-67
2020/12/31 08:59:15;;;;;;;15.70;9.73;;;;;;;6.63;62.50;100174.66;4914609;28;112760;-68
2020/12/31 09:01:43;;;;;;;15.93;9.63;;;;;;;6.66;62.22;100184.19;4929733;28;124693;-67
2020/12/31 09:04:18;;;;;;;15.55;9.45;;;;;;;6.68;62.07;100188.47;4930894;28;123087;-67
2020/12/31 09:06:47;;;;;;;14.45;9.07;;;;;;;6.70;62.23;100186.63;4929841;28;114098;-66
2020/12/31 09:09:28;;;;;;;14.70;9.30;;;;;;;6.68;62.07;100180.56;4928627;28;113685;-67
2020/12/31 09:12:06;;;;;;;15.32;9.13;;;;;;;6.67;61.94;100186.75;4928103;28;123883;-67
2020/12/31 09:14:36;;;;;;;13.10;9.10;;;;;;;6.67;62.23;100196.41;4929612;28;124682;-67
2020/12/31 09:17:25;;;;;;;14.40;9.25;;;;;;;6.67;62.17;100197.28;4929984;28;114662;-67
2020/12/31 09:19:52;;;;;;;13.20;8.18;;;;;;;6.69;62.14;100194.59;4904462;28;114634;-67
2020/12/31 09:22:19;;;;;;;14.70;8.52;;;;;;;6.69;62.18;100195.44;4930766;28;123892;-67
2020/12/31 09:24:46;;;;;;;14.43;8.57;;;;;;;6.70;62.30;100191.88;4930361;28;123898;-66
2020/12/31 09:27:22;;;;;;;11.60;8.02;;;;;;;6.73;62.22;100197.03;4914848;28;114104;-67
2020/12/31 09:29:59;;;;;;;14.25;8.60;;;;;;;6.74;62.30;100193.50;4931152;28;113769;-66
2020/12/31 09:32:26;;;;;;;15.20;8.68;;;;;;;6.77;62.36;100193.38;4914645;28;124580;-67
2020/12/31 09:34:53;;;;;;;13.00;8.57;;;;;;;6.80;62.11;100193.25;4932057;28;123864;-67
2020/12/31 09:37:19;;;;;;;15.90;8.57;;;;;;;6.83;62.23;100198.38;4923420;28;111603;-66
2020/12/31 09:39:46;;;;;;;16.60;9.00;;;;;;;6.87;62.55;100203.53;4932591;28;113203;-67
2020/12/31 09:42:13;;;;;;;12.82;8.30;;;;;;;6.89;62.20;100196.44;4932188;28;123997;-67
2020/12/31 09:44:40;;;;;;;16.52;9.63;;;;;;;6.93;62.33;100192.75;4928986;28;122516;-67
2020/12/31 09:47:06;;;;;;;14.32;8.55;;;;;;;6.98;62.36;100196.06;4914473;28;113704;-66
2020/12/31 09:49:33;;;;;;;12.38;7.47;;;;;;;7.01;62.54;100190.69;4932433;28;113817;-67
2020/12/31 09:52:00;;;;;;;12.55;7.72;;;;;;;7.02;62.33;100193.22;4914160;28;123983;-67
2020/12/31 09:54:27;;;;;;;11.23;7.50;;;;;;;7.05;62.25;100181.72;4914126;28;123046;-66
2020/12/31 09:56:54;;;;;;;13.02;7.70;;;;;;;7.06;62.22;100182.56;4932511;28;113215;-67
2020/12/31 09:59:20;;;;;;;12.55;8.05;;;;;;;7.09;62.19;100182.47;4915672;28;114271;-67
2020/12/31 10:01:47;;;;;;;12.52;8.05;;;;;;;7.10;61.92;100195.56;4931043;28;124751;-67
2020/12/31 10:04:14;;;;;;;11.98;8.05;;;;;;;7.11;61.91;100194.63;4921963;28;125093;-67
2020/12/31 10:06:45;;;;;;;10.93;7.50;;;;;;;7.13;62.11;100195.41;4901605;28;115545;-67
2020/12/31 10:09:14;;;;;;;12.70;8.82;;;;;;;7.18;62.39;100196.09;4932082;28;119995;-67
2020/12/31 10:11:45;;;;;;;11.23;7.55;;;;;;;7.20;62.35;100191.63;4930528;28;124220;-67
2020/12/31 10:14:12;;;;;;;12.95;8.15;;;;;;;7.24;61.88;100196.78;4926991;28;124417;-67
2020/12/31 10:16:39;;;;;;;13.02;8.73;;;;;;;7.25;61.99;100182.66;4896283;28;114513;-67
2020/12/31 10:19:05;;;;;;;14.55;9.18;;;;;;;7.25;62.10;100182.66;4929080;28;114313;-67
2020/12/31 10:21:32;;;;;;;12.63;7.18;;;;;;;7.28;62.11;100182.53;4911984;28;123098;-67
2020/12/31 10:23:59;;;;;;;10.90;7.05;;;;;;;7.30;61.79;100180.69;4912038;28;122837;-67
2020/12/31 10:26:25;;;;;;;10.13;6.50;;;;;;;7.31;61.80;100177.13;4930636;28;114955;-67
2020/12/31 10:28:52;;;;;;;9.52;6.60;;;;;;;7.27;61.86;100181.69;4929248;28;113754;-67
2020/12/31 10:31:18;;;;;;;10.82;7.22;;;;;;;7.25;61.90;100177.41;4911066;28;123965;-66
2020/12/31 10:33:45;;;;;;;11.50;7.30;;;;;;;7.26;61.80;100179.97;4930291;28;123124;-67
2020/12/31 10:36:11;;;;;;;10.68;7.30;;;;;;;7.31;62.11;100182.41;4913343;28;114454;-67
2020/12/31 10:38:38;;;;;;;12.48;7.78;;;;;;;7.34;61.89;100182.28;4917660;28;113958;-67
2020/12/31 10:41:07;;;;;;;13.25;7.65;;;;;;;7.37;61.82;100182.16;4901367;28;122990;-67
2020/12/31 10:43:33;;;;;;;11.07;7.25;;;;;;;7.40;61.69;100176.75;4933565;28;123942;-67
2020/12/31 10:46:00;;;;;;;18.02;7.70;;;;;;;7.41;61.91;100174.06;4917625;28;113366;-67
2020/12/31 10:48:27;;;;;;;13.23;7.07;;;;;;;7.40;61.45;100176.75;4934940;28;114263;-67
2020/12/31 10:50:59;;;;;;;13.32;7.97;;;;;;;7.40;61.72;100176.75;4916278;28;123531;-67
2020/12/31 10:53:26;;;;;;;11.20;7.55;;;;;;;7.40;61.46;100166.19;4932732;28;124519;-66
2020/12/31 10:55:53;;;;;;;12.75;8.38;;;;;;;7.40;61.39;100176.75;4912535;28;115929;-67
2020/12/31 10:58:19;;;;;;;13.32;7.88;;;;;;;7.41;61.56;100167.94;4933973;28;114850;-66
2020/12/31 11:00:46;;;;;;;14.02;8.77;;;;;;;7.42;61.55;100161.72;4929827;28;125194;-66
2020/12/31 11:03:12;;;;;;;11.55;7.55;;;;;;;7.41;61.57;100173.19;4934033;28;124446;-66
2020/12/31 11:05:39;;;;;;;12.20;8.30;;;;;;;7.41;61.63;100174.06;4914192;28;113151;-66
2020/12/31 11:08:05;;;;;;;14.93;9.82;;;;;;;7.44;61.80;100175.72;4935281;28;114346;-66
2020/12/31 11:10:32;;;;;;;13.25;9.05;;;;;;;7.48;61.71;100173.78;4932189;28;123781;-66
2020/12/31 11:13:01;;;;;;;11.68;8.07;;;;;;;7.52;61.94;100170.97;4917824;28;123154;-66
2020/12/31 11:15:27;;;;;;;18.52;10.00;;;;;;;7.54;61.83;100168.25;4932068;28;114624;-66
2020/12/31 11:17:54;;;;;;;17.30;10.32;;;;;;;7.57;61.77;100171.63;4937335;28;115084;-66
2020/12/31 11:20:21;;;;;;;12.25;7.97;;;;;;;7.60;61.96;100160.94;4918203;28;123713;-66
2020/12/31 11:22:49;;;;;;;15.73;8.90;;;;;;;7.64;61.99;100173.97;4931829;28;124580;-66
2020/12/31 11:25:16;;;;;;;12.27;9.02;;;;;;;7.66;61.65;100166.88;4917412;28;114269;-67
2020/12/31 11:27:42;;;;;;;14.20;9.13;;;;;;;7.67;61.47;100168.59;4935111;28;114029;-66
2020/12/31 11:30:09;;;;;;;13.60;8.77;;;;;;;7.70;61.94;100163.16;4934461;28;123963;-66